createdAt,value
2022-09-22T00:01:18.713Z,7.00
2022-09-22T00:03:51.061Z,7.00
2022-09-22T00:06:22.932Z,7.00
2022-09-22T00:08:51.785Z,7.00
2022-09-22T00:11:40.461Z,6.90
2022-09-22T00:14:13.798Z,6.80
2022-09-22T00:16:44.837Z,6.80
2022-09-22T00:19:24.875Z,6.70
2022-09-22T00:21:52.207Z,6.70
2022-09-22T00:24:22.523Z,6.70
2022-09-22T00:26:50.191Z,6.70
2022-09-22T00:29:17.245Z,6.80
2022-09-22T00:31:45.141Z,6.80
2022-09-22T00:34:20.902Z,6.80
2022-09-22T00:36:48.798Z,6.80
2022-09-22T00:39:16.907Z,6.70
2022-09-22T00:41:46.399Z,6.60
2022-09-22T00:44:36.526Z,6.50
2022-09-22T00:47:26.863Z,6.50
2022-09-22T00:49:53.507Z,6.40
2022-09-22T00:52:24.561Z,6.30
2022-09-22T00:54:54.667Z,6.30
2022-09-22T00:57:25.890Z,6.40
2022-09-22T00:59:54.335Z,6.40
2022-09-22T01:02:21.311Z,6.30
2022-09-22T01:04:50.797Z,6.30
2022-09-22T01:07:18.859Z,6.20
2022-09-22T01:09:45.532Z,6.20
2022-09-22T01:12:12.977Z,6.20
2022-09-22T01:15:10.500Z,6.10
2022-09-22T01:18:27.324Z,6.00
2022-09-22T01:21:02.616Z,5.80
2022-09-22T01:23:53.353Z,5.80
2022-09-22T01:26:50.117Z,5.80
2022-09-22T01:29:47.071Z,5.80
2022-09-22T01:32:29.849Z,5.70
2022-09-22T01:35:08.221Z,5.70
2022-09-22T01:38:07.199Z,5.70
2022-09-22T01:40:46.963Z,5.70
2022-09-22T01:43:33.028Z,5.70
2022-09-22T01:46:03.236Z,5.70
2022-09-22T01:48:33.149Z,5.70
2022-09-22T01:51:12.003Z,5.80
2022-09-22T01:53:45.258Z,5.80
2022-09-22T01:56:16.195Z,5.80
2022-09-22T01:58:47.669Z,5.70
2022-09-22T02:01:18.190Z,5.70
2022-09-22T02:04:00.214Z,5.70
2022-09-22T02:06:39.875Z,5.70
2022-09-22T02:09:09.969Z,5.70
2022-09-22T02:11:36.835Z,5.70
2022-09-22T02:14:05.491Z,5.60
2022-09-22T02:16:33.060Z,5.50
2022-09-22T02:19:16.370Z,5.40
2022-09-22T02:21:44.975Z,5.30
2022-09-22T02:24:37.632Z,5.20
2022-09-22T02:27:13.868Z,5.10
2022-09-22T02:29:49.757Z,5.00
2022-09-22T02:32:17.479Z,4.90
2022-09-22T02:34:46.390Z,5.00
2022-09-22T02:37:34.445Z,5.00
2022-09-22T02:40:32.632Z,5.00
2022-09-22T02:43:12.527Z,4.90
2022-09-22T02:45:59.814Z,5.00
2022-09-22T02:48:32.869Z,5.10
2022-09-22T02:50:59.805Z,5.10
2022-09-22T02:53:26.493Z,5.10
2022-09-22T02:55:53.167Z,5.20
2022-09-22T02:58:19.760Z,5.30
2022-09-22T03:00:46.386Z,5.20
2022-09-22T03:03:13.385Z,5.20
2022-09-22T03:05:40.253Z,5.20
2022-09-22T03:08:06.899Z,5.00
2022-09-22T03:10:33.786Z,4.90
2022-09-22T03:13:17.435Z,4.90
2022-09-22T03:15:45.624Z,4.70
2022-09-22T03:18:13.515Z,4.70
2022-09-22T03:20:40.628Z,4.70
2022-09-22T03:23:07.766Z,4.80
2022-09-22T03:25:34.533Z,4.90
2022-09-22T03:28:01.404Z,4.90
2022-09-22T03:30:28.093Z,4.90
2022-09-22T03:32:54.755Z,4.90
2022-09-22T03:35:21.593Z,4.90
2022-09-22T03:37:48.255Z,4.90
2022-09-22T03:40:14.988Z,4.90
2022-09-22T03:42:41.712Z,4.80
2022-09-22T03:45:09.404Z,4.90
2022-09-22T03:47:36.064Z,4.90
2022-09-22T03:50:03.009Z,4.70
2022-09-22T03:52:29.707Z,4.60
2022-09-22T03:54:56.403Z,4.50
2022-09-22T03:57:23.041Z,4.50
2022-09-22T03:59:49.737Z,4.60
2022-09-22T04:02:17.112Z,4.60
2022-09-22T04:04:43.811Z,4.40
2022-09-22T04:07:10.507Z,4.40
2022-09-22T04:09:37.225Z,4.30
2022-09-22T04:12:04.139Z,4.20
2022-09-22T04:14:30.772Z,4.10
2022-09-22T04:16:57.472Z,4.10
2022-09-22T04:19:24.460Z,4.10
2022-09-22T04:21:57.070Z,4.10
2022-09-22T04:24:24.744Z,4.10
2022-09-22T04:27:15.625Z,4.10
2022-09-22T04:29:38.614Z,4.10
2022-09-22T04:32:05.877Z,4.10
2022-09-22T04:34:32.560Z,4.10
2022-09-22T04:36:59.445Z,4.10
2022-09-22T04:39:28.524Z,4.10
2022-09-22T04:41:55.538Z,4.10
2022-09-22T04:44:22.573Z,4.00
2022-09-22T04:46:50.305Z,3.90
2022-09-22T04:49:18.125Z,4.00
2022-09-22T04:51:45.341Z,4.00
2022-09-22T04:54:11.988Z,4.00
2022-09-22T04:56:38.798Z,4.10
2022-09-22T04:59:05.552Z,4.00
2022-09-22T05:01:32.326Z,4.00
2022-09-22T05:03:59.305Z,4.10
2022-09-22T05:06:26.504Z,4.20
2022-09-22T05:08:53.403Z,4.10
2022-09-22T05:11:21.993Z,4.10
2022-09-22T05:13:49.316Z,4.10
2022-09-22T05:16:16.992Z,4.20
2022-09-22T05:18:43.721Z,4.20
2022-09-22T05:21:10.597Z,4.10
2022-09-22T05:23:37.425Z,4.10
2022-09-22T05:26:04.052Z,4.20
2022-09-22T05:28:31.033Z,4.10
2022-09-22T05:30:57.720Z,4.00
2022-09-22T05:33:24.429Z,3.90
2022-09-22T05:35:51.147Z,3.90
2022-09-22T05:38:17.813Z,3.90
2022-09-22T05:40:47.496Z,4.00
2022-09-22T05:43:16.750Z,4.20
2022-09-22T05:45:44.623Z,4.50
2022-09-22T05:48:11.492Z,4.80
2022-09-22T05:50:38.366Z,5.10
2022-09-22T05:53:08.244Z,5.40
2022-09-22T05:55:35.512Z,5.60
2022-09-22T05:58:02.547Z,5.70
2022-09-22T06:00:29.959Z,5.90
2022-09-22T06:02:57.007Z,6.20
2022-09-22T06:05:24.226Z,6.50
2022-09-22T06:08:03.214Z,6.50
2022-09-22T06:10:31.418Z,6.70
2022-09-22T06:13:03.224Z,6.80
2022-09-22T06:15:31.227Z,6.80
2022-09-22T06:17:57.920Z,6.90
2022-09-22T06:20:24.655Z,7.00
2022-09-22T06:22:51.388Z,7.10
2022-09-22T06:25:18.190Z,7.20
2022-09-22T06:27:45.160Z,7.40
2022-09-22T06:30:12.675Z,7.80
2022-09-22T06:32:39.876Z,8.00
2022-09-22T06:35:08.111Z,8.10
2022-09-22T06:37:38.485Z,8.40
2022-09-22T06:40:08.242Z,8.70
2022-09-22T06:42:35.807Z,8.90
2022-09-22T06:45:04.560Z,9.10
2022-09-22T06:47:32.901Z,9.40
2022-09-22T06:50:01.329Z,9.50
2022-09-22T06:52:28.906Z,9.70
2022-09-22T06:54:58.588Z,9.90
2022-09-22T06:57:27.287Z,10.00
2022-09-22T06:59:54.239Z,9.90
2022-09-22T07:02:22.257Z,10.40
2022-09-22T07:04:48.985Z,10.80
2022-09-22T07:07:16.562Z,10.80
2022-09-22T07:09:43.301Z,10.90
2022-09-22T07:12:10.029Z,11.10
2022-09-22T07:14:36.805Z,11.30
2022-09-22T07:17:03.549Z,11.50
2022-09-22T07:19:36.168Z,11.90
2022-09-22T07:22:03.280Z,11.90
2022-09-22T07:24:29.919Z,11.70
2022-09-22T07:26:56.599Z,11.50
2022-09-22T07:29:23.666Z,11.40
2022-09-22T07:31:51.734Z,11.50
2022-09-22T07:34:18.680Z,11.80
2022-09-22T07:36:45.685Z,12.00
2022-09-22T07:39:12.537Z,12.40
2022-09-22T07:41:43.240Z,12.70
2022-09-22T07:44:30.872Z,12.80
2022-09-22T07:46:58.335Z,12.90
2022-09-22T07:49:25.021Z,12.60
2022-09-22T07:51:58.042Z,12.40
2022-09-22T07:54:25.982Z,12.30
2022-09-22T07:56:56.025Z,12.40
2022-09-22T07:59:22.721Z,12.30
2022-09-22T08:01:50.733Z,12.50
2022-09-22T08:04:22.643Z,12.50
2022-09-22T08:06:52.937Z,13.00
2022-09-22T08:09:19.687Z,13.40
2022-09-22T08:11:48.589Z,13.50
2022-09-22T08:14:17.315Z,13.00
2022-09-22T08:16:45.770Z,13.30
2022-09-22T08:19:14.022Z,13.20
2022-09-22T08:21:48.762Z,13.50
2022-09-22T08:24:21.408Z,13.80
2022-09-22T08:26:52.647Z,13.90
2022-09-22T08:29:20.342Z,14.10
2022-09-22T08:31:47.761Z,14.30
2022-09-22T08:34:16.609Z,14.30
2022-09-22T08:36:46.589Z,14.30
2022-09-22T08:39:13.737Z,14.30
2022-09-22T08:42:13.944Z,14.40
2022-09-22T08:45:02.893Z,14.50
2022-09-22T08:48:04.711Z,14.00
2022-09-22T08:50:57.992Z,13.80
2022-09-22T08:53:26.813Z,14.00
2022-09-22T08:56:14.515Z,14.20
2022-09-22T08:58:55.057Z,14.40
2022-09-22T09:01:46.898Z,14.60
2022-09-22T09:04:49.191Z,14.50
2022-09-22T09:07:29.184Z,14.80
2022-09-22T09:10:15.075Z,14.80
2022-09-22T09:12:55.739Z,14.90
2022-09-22T09:15:51.568Z,14.80
2022-09-22T09:18:27.017Z,15.00
2022-09-22T09:20:54.895Z,15.00
2022-09-22T09:25:22.010Z,15.20
2022-09-22T09:26:18.095Z,15.30
2022-09-22T09:28:48.665Z,15.60
2022-09-22T09:31:31.058Z,15.40
2022-09-22T09:34:14.445Z,15.10
2022-09-22T09:36:44.760Z,15.10
2022-09-22T09:39:16.732Z,15.30
2022-09-22T09:41:46.957Z,15.60
2022-09-22T09:44:44.048Z,15.60
2022-09-22T09:47:29.237Z,15.60
2022-09-22T09:49:56.048Z,15.50
2022-09-22T09:52:25.807Z,15.70
2022-09-22T09:54:54.256Z,15.40
2022-09-22T09:57:27.707Z,15.50
2022-09-22T10:00:33.196Z,15.70
2022-09-22T10:03:03.065Z,15.90
2022-09-22T10:05:31.842Z,16.10
2022-09-22T10:08:02.933Z,15.90
2022-09-22T10:10:29.584Z,15.90
2022-09-22T10:13:28.515Z,15.70
2022-09-22T10:16:22.779Z,15.90
2022-09-22T10:18:52.130Z,16.10
2022-09-22T10:21:23.501Z,16.30
2022-09-22T10:23:51.317Z,16.40
2022-09-22T10:26:31.910Z,16.10
2022-09-22T10:29:18.890Z,16.30
2022-09-22T10:32:00.897Z,16.10
2022-09-22T10:34:37.208Z,16.30
2022-09-22T10:37:10.374Z,16.40
2022-09-22T10:39:57.493Z,16.50
2022-09-22T10:42:41.227Z,16.30
2022-09-22T10:45:13.808Z,16.50
2022-09-22T10:47:43.669Z,16.70
2022-09-22T10:50:31.294Z,16.70
2022-09-22T10:53:21.683Z,16.60
2022-09-22T10:56:13.686Z,16.80
2022-09-22T10:59:16.757Z,16.80
2022-09-22T11:01:53.313Z,16.80
2022-09-22T11:04:51.402Z,16.60
2022-09-22T11:07:44.604Z,16.60
2022-09-22T11:10:53.015Z,16.70
2022-09-22T11:13:38.621Z,16.80
2022-09-22T11:16:28.376Z,17.30
2022-09-22T11:19:12.703Z,17.40
2022-09-22T11:21:43.740Z,17.50
2022-09-22T11:24:23.757Z,17.50
2022-09-22T11:26:58.854Z,17.50
2022-09-22T11:29:47.240Z,17.00
2022-09-22T11:32:48.969Z,17.10
2022-09-22T11:35:18.765Z,17.40
2022-09-22T11:38:18.919Z,17.40
2022-09-22T11:40:51.397Z,17.40
2022-09-22T11:43:38.521Z,17.90
2022-09-22T11:46:25.186Z,18.20
2022-09-22T11:49:16.231Z,18.60
2022-09-22T11:52:00.432Z,18.60
2022-09-22T11:54:46.920Z,18.50
2022-09-22T11:57:23.493Z,18.10
2022-09-22T12:00:11.426Z,18.10
2022-09-22T12:03:02.429Z,18.30
2022-09-22T12:05:35.387Z,18.40
2022-09-22T12:08:16.958Z,18.20
2022-09-22T12:10:45.316Z,18.00
2022-09-22T12:13:22.037Z,17.90
2022-09-22T12:16:10.876Z,18.20
2022-09-22T12:18:49.998Z,18.30
2022-09-22T12:21:39.947Z,18.50
2022-09-22T12:24:11.640Z,18.20
2022-09-22T12:26:41.095Z,18.40
2022-09-22T12:29:16.551Z,18.60
2022-09-22T12:31:47.321Z,18.50
2022-09-22T12:34:22.308Z,18.80
2022-09-22T12:36:53.687Z,18.90
2022-09-22T12:39:30.955Z,18.70
2022-09-22T12:42:02.518Z,18.80
2022-09-22T12:44:36.502Z,18.80
2022-09-22T12:47:07.698Z,18.80
2022-09-22T12:49:34.538Z,19.10
2022-09-22T12:52:01.427Z,19.20
2022-09-22T12:54:36.913Z,18.80
2022-09-22T12:59:40.161Z,18.60
2022-09-22T13:02:31.620Z,18.60
2022-09-22T13:04:58.587Z,18.60
2022-09-22T13:07:34.050Z,19.00
2022-09-22T13:10:22.868Z,19.10
2022-09-22T13:13:09.242Z,19.00
2022-09-22T13:15:51.050Z,19.10
2022-09-22T13:18:37.299Z,18.90
2022-09-22T13:21:12.920Z,18.60
2022-09-22T13:23:49.340Z,18.70
2022-09-22T13:26:17.014Z,18.80
2022-09-22T13:28:44.628Z,19.30
2022-09-22T13:31:19.492Z,19.40
2022-09-22T13:33:46.504Z,19.60
2022-09-22T13:36:18.922Z,19.50
2022-09-22T13:38:51.313Z,19.60
2022-09-22T13:41:23.980Z,19.40
2022-09-22T13:44:04.049Z,19.40
2022-09-22T13:46:41.019Z,19.00
2022-09-22T13:49:11.577Z,18.70
2022-09-22T13:51:38.529Z,18.60
2022-09-22T13:54:07.048Z,18.40
2022-09-22T13:56:34.544Z,18.40
2022-09-22T13:59:02.948Z,18.50
2022-09-22T14:01:30.644Z,18.40
2022-09-22T14:03:57.688Z,18.40
2022-09-22T14:06:27.090Z,18.40
2022-09-22T14:08:55.045Z,18.40
2022-09-22T14:11:33.100Z,18.40
2022-09-22T14:14:01.764Z,18.50
2022-09-22T14:16:56.645Z,18.60
2022-09-22T14:19:29.216Z,18.40
2022-09-22T14:21:58.081Z,18.00
2022-09-22T14:24:26.360Z,17.90
2022-09-22T14:26:59.060Z,17.80
2022-09-22T14:29:36.530Z,18.20
2022-09-22T14:32:09.534Z,18.50
2022-09-22T14:34:39.388Z,18.70
2022-09-22T14:37:28.366Z,19.00
2022-09-22T14:39:57.207Z,19.20
2022-09-22T14:42:34.924Z,19.20
2022-09-22T14:45:21.131Z,19.00
2022-09-22T14:48:17.427Z,18.60
2022-09-22T14:50:48.416Z,18.20
2022-09-22T14:53:26.765Z,18.10
2022-09-22T14:56:34.087Z,18.00
2022-09-22T14:59:25.748Z,17.80
2022-09-22T15:02:12.509Z,17.70
2022-09-22T15:04:43.105Z,17.80
2022-09-22T15:07:24.767Z,17.60
2022-09-22T15:10:01.064Z,17.50
2022-09-22T15:12:40.194Z,17.50
2022-09-22T15:15:23.776Z,17.00
2022-09-22T15:18:21.568Z,16.90
2022-09-22T15:20:52.665Z,16.70
2022-09-22T15:23:21.716Z,16.90
2022-09-22T15:25:49.804Z,16.80
2022-09-22T15:28:23.705Z,16.80
2022-09-22T15:30:52.241Z,16.80
2022-09-22T15:33:21.012Z,16.60
2022-09-22T15:35:52.026Z,16.50
2022-09-22T15:38:21.154Z,16.40
2022-09-22T15:40:48.388Z,16.40
2022-09-22T15:43:20.755Z,16.50
2022-09-22T15:45:53.880Z,16.30
2022-09-22T15:48:27.733Z,16.20
2022-09-22T15:50:55.821Z,16.20
2022-09-22T15:53:24.010Z,16.20
2022-09-22T15:55:52.646Z,16.10
2022-09-22T15:58:22.938Z,16.00
2022-09-22T16:00:52.247Z,15.90
2022-09-22T16:03:24.369Z,15.80
2022-09-22T16:06:03.463Z,15.60
2022-09-22T16:08:44.704Z,15.40
2022-09-22T16:11:29.374Z,15.30
2022-09-22T16:13:58.242Z,15.10
2022-09-22T16:16:27.096Z,15.10
2022-09-22T16:18:54.223Z,15.00
2022-09-22T16:21:27.311Z,14.90
2022-09-22T16:23:59.524Z,14.70
2022-09-22T16:26:31.565Z,14.60
2022-09-22T16:28:58.754Z,14.50
2022-09-22T16:31:27.099Z,14.40
2022-09-22T16:33:55.901Z,14.30
2022-09-22T16:36:24.641Z,14.20
2022-09-22T16:38:51.320Z,14.10
2022-09-22T16:41:25.064Z,14.00
2022-09-22T16:43:52.731Z,13.90
2022-09-22T16:46:30.332Z,13.80
2022-09-22T16:49:03.202Z,13.70
2022-09-22T16:51:36.178Z,13.60
2022-09-22T16:54:05.468Z,13.40
2022-09-22T16:56:34.373Z,13.30
2022-09-22T16:59:01.609Z,13.30
2022-09-22T17:01:31.128Z,13.10
2022-09-22T17:03:58.513Z,13.10
2022-09-22T17:06:26.790Z,13.00
2022-09-22T17:08:56.879Z,12.90
2022-09-22T17:11:30.102Z,12.80
2022-09-22T17:14:02.936Z,12.80
2022-09-22T17:16:52.428Z,12.70
2022-09-22T17:19:27.560Z,12.70
2022-09-22T17:21:55.881Z,12.70
2022-09-22T17:24:23.747Z,12.50
2022-09-22T17:26:55.980Z,12.40
2022-09-22T17:29:27.644Z,12.40
2022-09-22T17:32:00.200Z,12.30
2022-09-22T17:34:28.575Z,12.10
2022-09-22T17:36:56.841Z,12.10
2022-09-22T17:39:24.531Z,12.10
2022-09-22T17:41:51.804Z,12.00
2022-09-22T17:44:21.357Z,11.90
2022-09-22T17:47:11.416Z,11.80
2022-09-22T17:49:58.188Z,11.80
2022-09-22T17:52:28.367Z,11.70
2022-09-22T17:55:09.274Z,11.70
2022-09-22T17:57:41.092Z,11.70
2022-09-22T18:00:10.780Z,11.60
2022-09-22T18:02:38.828Z,11.60
2022-09-22T18:05:11.668Z,11.60
2022-09-22T18:07:40.380Z,11.60
2022-09-22T18:10:13.282Z,11.60
2022-09-22T18:12:41.148Z,11.60
2022-09-22T18:15:12.696Z,11.50
2022-09-22T18:17:44.465Z,11.40
2022-09-22T18:20:21.215Z,11.40
2022-09-22T18:22:49.115Z,11.40
2022-09-22T18:25:23.036Z,11.30
2022-09-22T18:27:50.044Z,11.30
2022-09-22T18:30:19.166Z,11.30
2022-09-22T18:32:47.177Z,11.30
2022-09-22T18:35:15.349Z,11.20
2022-09-22T18:37:42.238Z,11.20
2022-09-22T18:40:11.290Z,11.20
2022-09-22T18:42:40.225Z,11.10
2022-09-22T18:45:07.683Z,11.10
2022-09-22T18:47:39.659Z,11.10
2022-09-22T18:50:06.802Z,11.00
2022-09-22T18:52:33.657Z,10.90
2022-09-22T18:55:02.473Z,10.70
2022-09-22T18:57:29.288Z,10.70
2022-09-22T18:59:59.803Z,10.70
2022-09-22T19:02:26.594Z,10.70
2022-09-22T19:04:53.577Z,10.70
2022-09-22T19:07:42.432Z,10.60
2022-09-22T19:10:15.226Z,10.60
2022-09-22T19:12:42.592Z,10.50
2022-09-22T19:15:16.420Z,10.50
2022-09-22T19:17:45.012Z,10.40
2022-09-22T19:20:31.109Z,10.30
2022-09-22T19:22:57.760Z,10.20
2022-09-22T19:25:24.535Z,10.20
2022-09-22T19:27:52.864Z,10.20
2022-09-22T19:30:23.376Z,10.00
2022-09-22T19:32:51.653Z,9.90
2022-09-22T19:35:19.456Z,9.80
2022-09-22T19:37:46.934Z,9.70
2022-09-22T19:40:18.570Z,9.80
2022-09-22T19:42:46.789Z,9.90
2022-09-22T19:45:13.643Z,9.90
2022-09-22T19:47:41.348Z,9.90
2022-09-22T19:50:08.533Z,9.80
2022-09-22T19:52:35.993Z,9.90
2022-09-22T19:55:02.731Z,9.90
2022-09-22T19:57:29.385Z,9.90
2022-09-22T19:59:56.308Z,9.90
2022-09-22T20:02:24.588Z,9.90
2022-09-22T20:04:51.301Z,9.80
2022-09-22T20:07:18.011Z,9.80
2022-09-22T20:09:46.267Z,9.80
2022-09-22T20:12:13.057Z,9.70
2022-09-22T20:14:39.926Z,9.70
2022-09-22T20:17:08.610Z,9.70
2022-09-22T20:19:40.503Z,9.70
2022-09-22T20:22:22.216Z,9.50
2022-09-22T20:24:54.794Z,9.40
2022-09-22T20:27:24.312Z,9.40
2022-09-22T20:29:55.064Z,9.30
2022-09-22T20:32:24.269Z,9.20
2022-09-22T20:34:52.209Z,9.10
2022-09-22T20:37:19.252Z,9.10
2022-09-22T20:39:45.975Z,9.10
2022-09-22T20:42:13.686Z,9.10
2022-09-22T20:44:42.137Z,9.10
2022-09-22T20:47:13.885Z,9.00
2022-09-22T20:49:46.842Z,9.00
2022-09-22T20:52:18.426Z,9.00
2022-09-22T20:54:46.329Z,8.90
2022-09-22T20:57:14.029Z,8.80
2022-09-22T20:59:46.703Z,8.80
2022-09-22T21:02:14.967Z,8.80
2022-09-22T21:04:42.115Z,8.70
2022-09-22T21:07:10.446Z,8.70
2022-09-22T21:09:55.820Z,8.70
2022-09-22T21:12:27.346Z,8.60
2022-09-22T21:14:57.603Z,8.60
2022-09-22T21:17:24.599Z,8.60
2022-09-22T21:19:51.349Z,8.60
2022-09-22T21:22:18.016Z,8.60
2022-09-22T21:24:48.660Z,8.70
2022-09-22T21:27:15.427Z,8.70
2022-09-22T21:29:42.338Z,8.70
2022-09-22T21:32:09.557Z,8.60
2022-09-22T21:34:36.568Z,8.50
2022-09-22T21:37:04.186Z,8.60
2022-09-22T21:39:30.889Z,8.60
2022-09-22T21:41:57.528Z,8.60
2022-09-22T21:44:24.336Z,8.50
2022-09-22T21:46:50.973Z,8.50
2022-09-22T21:49:17.686Z,8.50
2022-09-22T21:51:44.482Z,8.50
2022-09-22T21:54:18.963Z,8.50
2022-09-22T21:56:46.100Z,8.50
2022-09-22T21:59:13.394Z,8.40
2022-09-22T22:01:42.213Z,8.40
2022-09-22T22:04:13.399Z,8.30
2022-09-22T22:06:42.093Z,8.40
2022-09-22T22:09:20.187Z,8.30
2022-09-22T22:11:52.876Z,8.40
2022-09-22T22:14:21.492Z,8.30
2022-09-22T22:16:50.848Z,8.30
2022-09-22T22:19:20.175Z,8.40
2022-09-22T22:21:48.882Z,8.40
2022-09-22T22:24:17.935Z,8.30
2022-09-22T22:26:47.052Z,8.20
2022-09-22T22:29:13.997Z,8.10
2022-09-22T22:31:41.701Z,8.10
2022-09-22T22:34:13.488Z,8.10
2022-09-22T22:36:40.899Z,8.10
2022-09-22T22:39:09.098Z,8.00
2022-09-22T22:41:36.241Z,7.90
2022-09-22T22:44:03.392Z,7.80
2022-09-22T22:46:30.145Z,7.80
2022-09-22T22:48:57.668Z,7.80
2022-09-22T22:51:24.914Z,7.70
2022-09-22T22:53:53.117Z,7.70
2022-09-22T22:56:25.270Z,7.60
2022-09-22T22:58:53.129Z,7.50
2022-09-22T23:01:21.039Z,7.40
2022-09-22T23:03:56.350Z,7.40
2022-09-22T23:06:31.715Z,7.30
2022-09-22T23:08:58.743Z,7.20
2022-09-22T23:11:31.082Z,7.20
2022-09-22T23:14:01.951Z,7.30
2022-09-22T23:16:33.923Z,7.30
2022-09-22T23:19:02.816Z,7.40
2022-09-22T23:21:32.836Z,7.30
2022-09-22T23:24:01.026Z,7.40
2022-09-22T23:26:29.790Z,7.40
2022-09-22T23:29:01.559Z,7.40
2022-09-22T23:31:28.401Z,7.40
2022-09-22T23:33:55.058Z,7.40
2022-09-22T23:36:24.380Z,7.50
2022-09-22T23:38:55.621Z,7.60
2022-09-22T23:41:22.887Z,7.60
2022-09-22T23:43:50.473Z,7.50
2022-09-22T23:46:17.451Z,7.50
2022-09-22T23:48:44.172Z,7.50
2022-09-22T23:51:10.796Z,7.50
2022-09-22T23:53:38.101Z,7.40
2022-09-22T23:56:06.273Z,7.40
2022-09-22T23:58:33.956Z,7.40
